createdAt,value
2022-07-25T00:01:51.427Z,22.64
2022-07-25T00:04:18.836Z,22.61
2022-07-25T00:06:46.137Z,22.52
2022-07-25T00:09:13.709Z,22.52
2022-07-25T00:11:41.077Z,22.47
2022-07-25T00:14:08.683Z,22.43
2022-07-25T00:16:36.043Z,22.47
2022-07-25T00:19:03.333Z,22.44
2022-07-25T00:21:30.413Z,22.41
2022-07-25T00:23:57.447Z,22.35
2022-07-25T00:26:24.542Z,22.18
2022-07-25T00:28:51.610Z,22.16
2022-07-25T00:31:18.765Z,22.16
2022-07-25T00:33:45.921Z,22.14
2022-07-25T00:36:13.519Z,22.09
2022-07-25T00:38:40.674Z,22.13
2022-07-25T00:41:07.881Z,22.12
2022-07-25T00:43:34.979Z,22.04
2022-07-25T00:46:02.097Z,21.95
2022-07-25T00:48:30.249Z,21.99
2022-07-25T00:50:58.065Z,21.86
2022-07-25T00:53:25.702Z,21.91
2022-07-25T00:55:53.220Z,21.86
2022-07-25T00:58:20.441Z,21.73
2022-07-25T01:00:48.297Z,21.72
2022-07-25T01:03:15.893Z,21.70
2022-07-25T01:05:43.180Z,21.78
2022-07-25T01:08:10.715Z,21.72
2022-07-25T01:10:38.881Z,21.59
2022-07-25T01:13:06.070Z,21.69
2022-07-25T01:15:33.364Z,21.70
2022-07-25T01:18:00.507Z,21.66
2022-07-25T01:20:29.901Z,21.62
2022-07-25T01:22:57.224Z,21.54
2022-07-25T01:25:25.017Z,21.49
2022-07-25T01:27:55.690Z,21.50
2022-07-25T01:30:24.888Z,21.54
2022-07-25T01:32:52.797Z,21.53
2022-07-25T01:35:19.997Z,21.56
2022-07-25T01:37:47.174Z,21.42
2022-07-25T01:40:14.892Z,21.49
2022-07-25T01:42:42.964Z,21.53
2022-07-25T01:45:11.322Z,21.66
2022-07-25T01:47:38.634Z,21.65
2022-07-25T01:50:06.721Z,21.54
2022-07-25T01:52:33.798Z,21.42
2022-07-25T01:55:00.926Z,21.33
2022-07-25T01:57:31.143Z,21.15
2022-07-25T01:59:58.606Z,21.25
2022-07-25T02:02:26.060Z,21.22
2022-07-25T02:04:53.278Z,21.35
2022-07-25T02:07:20.467Z,21.49
2022-07-25T02:09:47.548Z,21.52
2022-07-25T02:12:14.657Z,21.62
2022-07-25T02:14:41.810Z,22.29
2022-07-25T02:17:09.073Z,22.66
2022-07-25T02:19:36.701Z,22.74
2022-07-25T02:22:04.059Z,23.31
2022-07-25T02:24:31.236Z,24.03
2022-07-25T02:26:58.318Z,24.29
2022-07-25T02:29:25.708Z,24.46
2022-07-25T02:31:53.201Z,25.06
2022-07-25T02:34:21.114Z,25.92
2022-07-25T02:36:48.203Z,26.56
2022-07-25T02:39:15.259Z,26.82
2022-07-25T02:41:44.168Z,26.78
2022-07-25T02:44:11.196Z,25.55
2022-07-25T02:46:38.354Z,24.42
2022-07-25T02:49:05.557Z,23.73
2022-07-25T02:51:32.636Z,23.21
2022-07-25T02:53:59.699Z,22.91
2022-07-25T02:56:29.861Z,22.81
2022-07-25T02:58:57.714Z,22.74
2022-07-25T03:01:25.042Z,22.89
2022-07-25T03:03:52.306Z,23.18
2022-07-25T03:06:19.535Z,23.83
2022-07-25T03:08:46.665Z,24.15
2022-07-25T03:11:14.335Z,23.95
2022-07-25T03:13:41.441Z,24.03
2022-07-25T03:16:09.834Z,24.74
2022-07-25T03:18:37.164Z,24.49
2022-07-25T03:21:04.705Z,23.45
2022-07-25T03:23:32.360Z,23.21
2022-07-25T03:25:59.958Z,23.35
2022-07-25T03:28:27.021Z,23.47
2022-07-25T03:30:54.122Z,24.06
2022-07-25T03:33:21.246Z,25.45
2022-07-25T03:35:48.489Z,25.15
2022-07-25T03:38:15.603Z,24.64
2022-07-25T03:40:42.975Z,24.17
2022-07-25T03:43:10.226Z,24.05
2022-07-25T03:45:37.394Z,23.89
2022-07-25T03:48:04.684Z,23.52
2022-07-25T03:50:31.864Z,23.36
2022-07-25T03:52:59.145Z,23.59
2022-07-25T03:55:26.266Z,23.66
2022-07-25T03:57:53.344Z,23.49
2022-07-25T04:00:20.431Z,23.55
2022-07-25T04:02:47.483Z,23.47
2022-07-25T04:05:14.618Z,23.85
2022-07-25T04:07:41.682Z,23.72
2022-07-25T04:10:09.463Z,23.50
2022-07-25T04:12:37.832Z,23.61
2022-07-25T04:15:05.396Z,23.60
2022-07-25T04:17:32.466Z,23.64
2022-07-25T04:19:59.762Z,23.57
2022-07-25T04:22:27.054Z,23.64
2022-07-25T04:24:54.208Z,23.60
2022-07-25T04:27:21.327Z,23.55
2022-07-25T04:29:48.396Z,23.73
2022-07-25T04:32:21.377Z,23.82
2022-07-25T04:34:52.374Z,24.02
2022-07-25T04:37:19.576Z,23.94
2022-07-25T04:39:46.709Z,24.03
2022-07-25T04:42:13.855Z,24.16
2022-07-25T04:44:40.940Z,24.12
2022-07-25T04:47:08.449Z,24.00
2022-07-25T04:49:35.508Z,24.03
2022-07-25T04:52:02.560Z,24.23
2022-07-25T04:54:29.751Z,23.99
2022-07-25T04:56:56.822Z,24.13
2022-07-25T04:59:23.871Z,24.29
2022-07-25T05:01:51.018Z,24.16
2022-07-25T05:04:18.156Z,24.19
2022-07-25T05:06:45.185Z,24.37
2022-07-25T05:09:12.253Z,24.33
2022-07-25T05:11:42.538Z,24.53
2022-07-25T05:14:14.075Z,24.47
2022-07-25T05:16:41.237Z,24.10
2022-07-25T05:19:09.790Z,24.34
2022-07-25T05:21:38.309Z,24.59
2022-07-25T05:24:06.353Z,24.66
2022-07-25T05:26:33.603Z,24.35
2022-07-25T05:29:00.653Z,24.45
2022-07-25T05:31:27.787Z,24.65
2022-07-25T05:33:54.961Z,24.62
2022-07-25T05:36:22.154Z,24.76
2022-07-25T05:38:49.218Z,24.76
2022-07-25T05:41:16.551Z,24.76
2022-07-25T05:43:46.214Z,24.98
2022-07-25T05:46:13.751Z,25.07
2022-07-25T05:48:41.742Z,25.19
2022-07-25T05:51:09.090Z,25.25
2022-07-25T05:53:36.375Z,25.27
2022-07-25T05:56:03.704Z,25.31
2022-07-25T05:58:30.935Z,25.61
2022-07-25T06:00:58.695Z,25.80
2022-07-25T06:03:26.320Z,25.89
2022-07-25T06:05:56.392Z,25.62
2022-07-25T06:08:24.031Z,25.41
2022-07-25T06:10:52.073Z,25.30
2022-07-25T06:13:20.894Z,25.06
2022-07-25T06:15:48.079Z,25.41
2022-07-25T06:18:15.535Z,25.82
2022-07-25T06:20:42.591Z,26.00
2022-07-25T06:23:09.663Z,25.92
2022-07-25T06:25:36.787Z,26.08
2022-07-25T06:28:04.021Z,26.08
2022-07-25T06:30:31.193Z,25.68
2022-07-25T06:32:58.311Z,25.89
2022-07-25T06:35:25.385Z,26.09
2022-07-25T06:37:52.522Z,26.18
2022-07-25T06:40:19.626Z,26.43
2022-07-25T06:42:48.006Z,26.44
2022-07-25T06:45:16.666Z,26.57
2022-07-25T06:47:44.739Z,26.67
2022-07-25T06:50:15.068Z,26.57
2022-07-25T06:52:42.343Z,26.49
2022-07-25T06:55:10.461Z,26.53
2022-07-25T06:57:38.263Z,26.31
2022-07-25T07:00:12.861Z,26.24
2022-07-25T07:02:56.304Z,26.07
2022-07-25T07:05:29.016Z,25.93
2022-07-25T07:07:56.838Z,26.38
2022-07-25T07:10:25.440Z,26.53
2022-07-25T07:13:10.283Z,26.76
2022-07-25T07:15:39.275Z,26.42
2022-07-25T07:18:07.508Z,26.58
2022-07-25T07:20:35.370Z,26.78
2022-07-25T07:23:02.876Z,26.75
2022-07-25T07:25:30.897Z,26.42
2022-07-25T07:27:58.007Z,26.25
2022-07-25T07:30:37.652Z,26.08
2022-07-25T07:33:12.190Z,26.14
2022-07-25T07:35:39.810Z,26.35
2022-07-25T07:38:06.905Z,26.55
2022-07-25T07:40:34.007Z,26.65
2022-07-25T07:43:03.680Z,26.82
2022-07-25T07:45:31.227Z,26.93
2022-07-25T07:47:58.353Z,26.84
2022-07-25T07:50:27.709Z,26.61
2022-07-25T07:52:56.341Z,26.41
2022-07-25T07:55:42.188Z,26.58
2022-07-25T07:58:10.150Z,26.67
2022-07-25T08:00:39.488Z,26.82
2022-07-25T08:03:08.873Z,26.90
2022-07-25T08:05:40.009Z,27.01
2022-07-25T08:08:09.049Z,26.91
2022-07-25T08:10:39.969Z,26.93
2022-07-25T08:13:14.490Z,27.18
2022-07-25T08:15:42.866Z,27.31
2022-07-25T08:18:16.859Z,27.20
2022-07-25T08:20:46.728Z,27.59
2022-07-25T08:23:13.874Z,27.39
2022-07-25T08:25:41.800Z,27.08
2022-07-25T08:28:09.556Z,27.02
2022-07-25T08:30:38.237Z,27.08
2022-07-25T08:33:10.686Z,27.06
2022-07-25T08:35:37.987Z,27.09
2022-07-25T08:38:06.058Z,27.12
2022-07-25T08:40:34.578Z,27.38
2022-07-25T08:43:01.723Z,27.68
2022-07-25T08:45:29.145Z,27.76
2022-07-25T08:47:56.773Z,27.90
2022-07-25T08:50:27.231Z,28.23
2022-07-25T08:53:09.972Z,28.58
2022-07-25T08:55:37.524Z,28.54
2022-07-25T08:58:04.614Z,28.38
2022-07-25T09:00:31.911Z,28.35
2022-07-25T09:03:03.378Z,27.75
2022-07-25T09:05:32.156Z,27.71
2022-07-25T09:08:11.178Z,27.69
2022-07-25T09:10:39.813Z,28.22
2022-07-25T09:13:14.357Z,28.04
2022-07-25T09:16:00.528Z,27.95
2022-07-25T09:18:28.459Z,28.12
2022-07-25T09:21:00.060Z,28.20
2022-07-25T09:23:36.080Z,28.37
2022-07-25T09:26:10.535Z,28.09
2022-07-25T09:28:47.704Z,27.62
2022-07-25T09:31:16.839Z,27.54
2022-07-25T09:33:48.104Z,27.38
2022-07-25T09:36:15.764Z,27.42
2022-07-25T09:39:01.835Z,27.15
2022-07-25T09:41:37.117Z,27.22
2022-07-25T09:44:15.261Z,27.25
2022-07-25T09:46:42.501Z,27.22
2022-07-25T09:49:09.973Z,27.45
2022-07-25T09:51:37.227Z,27.33
2022-07-25T09:54:04.810Z,27.20
2022-07-25T09:56:33.283Z,27.57
2022-07-25T09:59:01.583Z,27.54
2022-07-25T10:01:35.695Z,27.64
2022-07-25T10:04:21.808Z,27.69
2022-07-25T10:07:09.749Z,27.82
2022-07-25T10:09:45.855Z,27.66
2022-07-25T10:12:15.007Z,27.63
2022-07-25T10:14:42.383Z,27.50
2022-07-25T10:17:20.274Z,27.69
2022-07-25T10:19:52.973Z,27.70
2022-07-25T10:22:46.332Z,27.52
2022-07-25T10:25:16.113Z,27.50
2022-07-25T10:27:48.865Z,27.54
2022-07-25T10:30:27.080Z,27.22
2022-07-25T10:32:59.414Z,27.54
2022-07-25T10:35:28.131Z,27.36
2022-07-25T10:37:57.259Z,27.21
2022-07-25T10:40:44.964Z,27.60
2022-07-25T10:43:15.156Z,27.48
2022-07-25T10:45:44.938Z,27.60
2022-07-25T10:48:32.668Z,27.54
2022-07-25T10:51:01.949Z,27.24
2022-07-25T10:53:36.749Z,27.60
2022-07-25T10:56:16.427Z,27.80
2022-07-25T10:58:51.462Z,27.96
2022-07-25T11:01:23.481Z,27.55
2022-07-25T11:03:52.757Z,27.43
2022-07-25T11:06:37.511Z,27.71
2022-07-25T11:09:19.116Z,27.67
2022-07-25T11:11:50.681Z,27.58
2022-07-25T11:14:21.704Z,27.88
2022-07-25T11:16:51.372Z,27.69
2022-07-25T11:19:21.316Z,27.09
2022-07-25T11:21:51.795Z,27.19
2022-07-25T11:24:19.043Z,27.34
2022-07-25T11:26:52.731Z,27.35
2022-07-25T11:29:20.737Z,27.45
2022-07-25T11:31:59.249Z,27.54
2022-07-25T11:34:28.971Z,27.55
2022-07-25T11:36:57.658Z,27.83
2022-07-25T11:39:29.518Z,27.70
2022-07-25T11:42:05.992Z,27.70
2022-07-25T11:44:48.335Z,27.85
2022-07-25T11:47:30.921Z,27.48
2022-07-25T11:50:04.930Z,27.64
2022-07-25T11:52:34.593Z,27.64
2022-07-25T11:55:02.731Z,27.59
2022-07-25T11:57:34.267Z,27.72
2022-07-25T12:00:04.968Z,27.31
2022-07-25T12:02:40.938Z,27.36
2022-07-25T12:05:12.126Z,27.47
2022-07-25T12:07:49.442Z,27.50
2022-07-25T12:10:22.280Z,27.75
2022-07-25T12:12:52.724Z,27.57
2022-07-25T12:15:22.785Z,27.80
2022-07-25T12:17:50.717Z,28.01
2022-07-25T12:20:23.148Z,28.05
2022-07-25T12:22:52.606Z,28.04
2022-07-25T12:25:20.068Z,28.05
2022-07-25T12:27:47.611Z,28.04
2022-07-25T12:30:15.271Z,27.90
2022-07-25T12:32:43.152Z,27.95
2022-07-25T12:35:12.783Z,28.24
2022-07-25T12:37:41.907Z,28.20
2022-07-25T12:40:10.336Z,28.09
2022-07-25T12:42:37.635Z,28.05
2022-07-25T12:45:05.615Z,28.36
2022-07-25T12:47:32.793Z,28.25
2022-07-25T12:50:00.279Z,27.98
2022-07-25T12:52:27.649Z,28.28
2022-07-25T12:54:54.734Z,28.09
2022-07-25T12:57:21.932Z,28.15
2022-07-25T12:59:49.134Z,28.35
2022-07-25T13:02:16.526Z,28.56
2022-07-25T13:04:43.759Z,28.65
2022-07-25T13:07:10.827Z,28.52
2022-07-25T13:09:38.028Z,28.33
2022-07-25T13:12:05.586Z,28.45
2022-07-25T13:14:32.778Z,28.77
2022-07-25T13:16:59.948Z,28.98
2022-07-25T13:19:27.495Z,29.04
2022-07-25T13:21:54.567Z,29.12
2022-07-25T13:24:21.652Z,28.91
2022-07-25T13:26:48.757Z,29.04
2022-07-25T13:29:15.868Z,28.82
2022-07-25T13:31:47.356Z,28.77
2022-07-25T13:34:14.925Z,28.70
2022-07-25T13:36:42.012Z,28.56
2022-07-25T13:39:09.386Z,28.78
2022-07-25T13:41:36.734Z,29.18
2022-07-25T13:44:03.909Z,28.91
2022-07-25T13:46:32.357Z,28.64
2022-07-25T13:48:59.495Z,28.54
2022-07-25T13:51:26.816Z,28.87
2022-07-25T13:53:53.839Z,28.89
2022-07-25T13:56:21.020Z,28.85
2022-07-25T13:58:48.432Z,28.52
2022-07-25T14:01:15.865Z,28.63
2022-07-25T14:03:42.948Z,28.72
2022-07-25T14:06:13.676Z,28.81
2022-07-25T14:08:40.883Z,28.91
2022-07-25T14:11:08.535Z,28.98
2022-07-25T14:13:36.325Z,29.11
2022-07-25T14:16:03.787Z,29.09
2022-07-25T14:18:32.049Z,29.09
2022-07-25T14:20:59.791Z,28.56
2022-07-25T14:23:30.094Z,28.71
2022-07-25T14:25:58.905Z,28.69
2022-07-25T14:28:26.338Z,28.81
2022-07-25T14:30:53.486Z,28.81
2022-07-25T14:33:20.610Z,28.45
2022-07-25T14:35:47.710Z,28.09
2022-07-25T14:38:15.353Z,28.16
2022-07-25T14:40:43.075Z,28.05
2022-07-25T14:43:10.193Z,28.08
2022-07-25T14:45:37.390Z,27.78
2022-07-25T14:48:07.614Z,27.04
2022-07-25T14:50:34.876Z,26.64
2022-07-25T14:53:01.986Z,26.52
2022-07-25T14:55:29.230Z,24.83
2022-07-25T14:57:57.996Z,23.57
2022-07-25T15:00:29.437Z,22.92
2022-07-25T15:02:57.527Z,22.55
2022-07-25T15:05:25.231Z,22.35
2022-07-25T15:07:52.496Z,22.17
2022-07-25T15:10:19.878Z,22.10
2022-07-25T15:12:47.094Z,22.31
2022-07-25T15:15:14.212Z,22.59
2022-07-25T15:17:41.383Z,22.48
2022-07-25T15:20:09.356Z,22.47
2022-07-25T15:22:55.514Z,22.62
2022-07-25T15:25:59.469Z,22.78
2022-07-25T15:28:09.805Z,23.04
2022-07-25T15:30:36.905Z,23.38
2022-07-25T15:33:03.995Z,23.47
2022-07-25T15:35:31.075Z,23.39
2022-07-25T15:37:58.189Z,23.33
2022-07-25T15:40:25.324Z,22.75
2022-07-25T15:42:52.423Z,22.66
2022-07-25T15:45:33.033Z,22.31
2022-07-25T15:48:01.657Z,22.09
2022-07-25T15:50:28.940Z,22.01
2022-07-25T15:52:56.219Z,22.18
2022-07-25T15:55:23.420Z,22.26
2022-07-25T15:57:53.033Z,22.28
2022-07-25T16:00:20.998Z,22.18
2022-07-25T16:02:49.268Z,22.30
2022-07-25T16:05:16.446Z,22.08
2022-07-25T16:07:44.253Z,21.82
2022-07-25T16:10:11.937Z,21.67
2022-07-25T16:12:39.543Z,21.48
2022-07-25T16:15:08.249Z,21.36
2022-07-25T16:17:36.664Z,21.30
2022-07-25T16:20:09.367Z,21.28
2022-07-25T16:22:36.632Z,21.27
2022-07-25T16:25:05.190Z,21.26
2022-07-25T16:27:32.450Z,21.38
2022-07-25T16:29:59.538Z,21.35
2022-07-25T16:32:26.692Z,21.43
2022-07-25T16:34:53.801Z,21.50
2022-07-25T16:37:21.439Z,21.55
2022-07-25T16:39:48.752Z,21.39
2022-07-25T16:42:15.880Z,20.96
2022-07-25T16:44:43.325Z,20.91
2022-07-25T16:47:10.629Z,20.93
2022-07-25T16:49:37.816Z,21.03
2022-07-25T16:52:05.493Z,21.12
2022-07-25T16:54:36.735Z,21.10
2022-07-25T16:57:04.353Z,20.99
2022-07-25T16:59:31.525Z,20.90
2022-07-25T17:01:58.996Z,20.91
2022-07-25T17:04:26.353Z,21.07
2022-07-25T17:06:53.486Z,21.12
2022-07-25T17:09:20.760Z,21.00
2022-07-25T17:11:48.279Z,20.69
2022-07-25T17:14:15.455Z,20.84
2022-07-25T17:16:43.988Z,20.76
2022-07-25T17:19:11.245Z,20.76
2022-07-25T17:21:38.743Z,20.97
2022-07-25T17:24:06.564Z,20.94
2022-07-25T17:26:33.712Z,20.88
2022-07-25T17:29:01.343Z,20.74
2022-07-25T17:31:28.773Z,20.74
2022-07-25T17:33:59.112Z,20.68
2022-07-25T17:36:26.289Z,20.79
2022-07-25T17:38:53.492Z,20.70
2022-07-25T17:41:20.715Z,20.90
2022-07-25T17:43:48.440Z,20.83
2022-07-25T17:46:16.203Z,20.67
2022-07-25T17:48:43.662Z,20.52
2022-07-25T17:51:10.908Z,20.55
2022-07-25T17:53:38.387Z,20.69
2022-07-25T17:56:05.664Z,20.81
2022-07-25T17:58:32.902Z,20.91
2022-07-25T18:01:01.741Z,21.01
2022-07-25T18:03:30.043Z,21.09
2022-07-25T18:05:57.539Z,21.13
2022-07-25T18:08:24.996Z,20.99
2022-07-25T18:10:52.184Z,21.22
2022-07-25T18:13:19.398Z,21.19
2022-07-25T18:15:47.055Z,21.17
2022-07-25T18:18:19.887Z,21.15
2022-07-25T18:20:47.989Z,21.35
2022-07-25T18:23:15.207Z,21.34
2022-07-25T18:25:44.923Z,21.31
2022-07-25T18:28:12.851Z,21.37
2022-07-25T18:30:40.215Z,21.32
2022-07-25T18:33:07.826Z,21.42
2022-07-25T18:35:35.040Z,21.47
2022-07-25T18:38:02.484Z,21.35
2022-07-25T18:40:30.022Z,21.41
2022-07-25T18:42:57.115Z,21.41
2022-07-25T18:45:26.029Z,21.34
2022-07-25T18:47:53.879Z,21.37
2022-07-25T18:50:21.334Z,21.35
2022-07-25T18:52:48.475Z,21.45
2022-07-25T18:55:15.701Z,21.53
2022-07-25T18:57:42.963Z,21.65
2022-07-25T19:00:11.006Z,21.67
2022-07-25T19:02:38.265Z,21.59
2022-07-25T19:05:06.559Z,21.52
2022-07-25T19:07:34.359Z,21.47
2022-07-25T19:10:02.097Z,21.51
2022-07-25T19:12:30.523Z,21.60
2022-07-25T19:14:57.942Z,21.54
2022-07-25T19:17:25.573Z,21.59
2022-07-25T19:19:53.070Z,21.56
2022-07-25T19:22:20.940Z,21.54
2022-07-25T19:24:48.129Z,21.60
2022-07-25T19:27:15.344Z,21.45
2022-07-25T19:29:43.177Z,21.54
2022-07-25T19:32:10.573Z,21.59
2022-07-25T19:34:37.812Z,21.51
2022-07-25T19:37:04.912Z,21.41
2022-07-25T19:39:32.017Z,21.56
2022-07-25T19:41:59.397Z,21.49
2022-07-25T19:44:26.477Z,21.59
2022-07-25T19:46:54.395Z,21.58
2022-07-25T19:49:21.572Z,21.49
2022-07-25T19:51:48.724Z,21.46
2022-07-25T19:54:15.790Z,21.62
2022-07-25T19:56:42.876Z,21.62
2022-07-25T19:59:09.943Z,21.72
2022-07-25T20:01:39.424Z,21.77
2022-07-25T20:04:09.262Z,21.79
2022-07-25T20:06:36.942Z,21.69
2022-07-25T20:09:04.600Z,21.70
2022-07-25T20:11:31.922Z,21.73
2022-07-25T20:14:00.181Z,21.75
2022-07-25T20:16:27.577Z,21.64
2022-07-25T20:18:54.759Z,21.57
2022-07-25T20:21:22.448Z,21.48
2022-07-25T20:24:04.201Z,21.41
2022-07-25T20:26:38.433Z,21.39
2022-07-25T20:29:07.154Z,21.47
2022-07-25T20:31:36.099Z,21.47
2022-07-25T20:34:03.864Z,21.51
2022-07-25T20:36:30.970Z,21.52
2022-07-25T20:38:58.047Z,21.49
2022-07-25T20:41:25.881Z,21.44
2022-07-25T20:43:53.269Z,21.50
2022-07-25T20:46:20.460Z,21.44
2022-07-25T20:48:48.040Z,21.57
2022-07-25T20:51:15.421Z,21.44
2022-07-25T20:53:43.478Z,21.48
2022-07-25T20:56:11.010Z,21.57
2022-07-25T20:58:41.112Z,21.57
2022-07-25T21:01:08.297Z,21.46
2022-07-25T21:03:36.512Z,21.53
2022-07-25T21:06:03.823Z,21.36
2022-07-25T21:08:30.885Z,21.38
2022-07-25T21:10:58.958Z,21.38
2022-07-25T21:13:26.214Z,21.30
2022-07-25T21:15:58.042Z,21.35
2022-07-25T21:18:25.195Z,21.32
2022-07-25T21:20:53.350Z,21.29
2022-07-25T21:23:21.005Z,21.34
2022-07-25T21:25:48.926Z,21.30
2022-07-25T21:28:16.105Z,21.20
2022-07-25T21:30:44.044Z,21.18
2022-07-25T21:33:14.283Z,21.27
2022-07-25T21:35:49.371Z,21.22
2022-07-25T21:38:26.531Z,21.30
2022-07-25T21:40:56.610Z,21.38
2022-07-25T21:43:26.370Z,21.41
2022-07-25T21:45:53.632Z,21.35
2022-07-25T21:48:40.759Z,21.20
2022-07-25T21:51:19.238Z,21.18
2022-07-25T21:53:52.201Z,21.09
2022-07-25T21:56:20.529Z,21.11
2022-07-25T21:58:47.713Z,20.95
2022-07-25T22:01:15.114Z,20.91
2022-07-25T22:03:42.355Z,20.96
2022-07-25T22:06:12.044Z,21.01
2022-07-25T22:08:40.417Z,20.90
2022-07-25T22:11:15.727Z,20.84
2022-07-25T22:13:47.782Z,20.95
2022-07-25T22:16:16.509Z,20.90
2022-07-25T22:18:43.803Z,21.01
2022-07-25T22:21:11.436Z,21.04
2022-07-25T22:23:43.017Z,20.84
2022-07-25T22:26:10.121Z,20.97
2022-07-25T22:28:39.976Z,20.98
2022-07-25T22:31:07.230Z,20.92
2022-07-25T22:33:35.031Z,20.79
2022-07-25T22:36:02.221Z,20.92
2022-07-25T22:38:32.134Z,20.94
2022-07-25T22:41:02.789Z,20.93
2022-07-25T22:43:56.541Z,20.94
2022-07-25T22:46:17.594Z,20.85
2022-07-25T22:48:47.756Z,20.68
2022-07-25T22:51:14.911Z,20.81
2022-07-25T22:53:44.268Z,20.74
2022-07-25T22:56:11.692Z,20.85
2022-07-25T22:58:38.777Z,20.80
2022-07-25T23:01:05.927Z,20.81
2022-07-25T23:03:33.795Z,20.85
2022-07-25T23:06:01.558Z,20.88
2022-07-25T23:08:32.294Z,20.92
2022-07-25T23:11:06.263Z,20.89
2022-07-25T23:13:34.702Z,20.92
2022-07-25T23:16:03.274Z,20.94
2022-07-25T23:18:31.394Z,20.81
2022-07-25T23:20:58.536Z,20.77
2022-07-25T23:23:26.011Z,20.77
2022-07-25T23:25:53.166Z,20.85
2022-07-25T23:28:20.971Z,20.90
2022-07-25T23:30:48.165Z,20.69
2022-07-25T23:33:15.196Z,20.78
2022-07-25T23:35:42.410Z,20.81
2022-07-25T23:38:10.908Z,20.74
2022-07-25T23:40:38.115Z,20.68
2022-07-25T23:43:05.186Z,20.81
2022-07-25T23:45:32.872Z,21.01
2022-07-25T23:47:59.952Z,20.95
2022-07-25T23:50:27.072Z,21.08
2022-07-25T23:52:54.146Z,20.99
2022-07-25T23:55:21.278Z,21.02
2022-07-25T23:57:48.340Z,20.96
